Time;durP1;ratioP1;P1;durP2;ratioP2;P2;SDS_P1;SDS_P2;PMS_P1;PMS_P2;Temp;Humidity;BMP_temperature;BMP_pressure;BME280_temperature;BME280_humidity;BME280_pressure;Samples;Min_cycle;Max_cycle;Signal;HPM_P1;HPM_P2
2023/11/07 00:00:15;;;;;;;0.50;0.20;;;8.40;99.90;;;;;;5134441;27;20487;-56
2023/11/07 00:02:43;;;;;;;0.50;0.20;;;8.50;99.90;;;;;;5131913;27;20854;-56
2023/11/07 00:05:10;;;;;;;0.60;0.20;;;8.50;99.90;;;;;;5132206;27;20917;-54
2023/11/07 00:07:37;;;;;;;0.40;0.20;;;8.60;99.90;;;;;;5134913;27;20422;-55
2023/11/07 00:10:05;;;;;;;0.40;0.20;;;8.50;99.90;;;;;;5134152;27;20418;-55
2023/11/07 00:12:32;;;;;;;0.40;0.20;;;8.40;99.90;;;;;;5134512;27;20426;-54
2023/11/07 00:15:01;;;;;;;0.50;0.20;;;8.40;99.90;;;;;;5133638;27;20830;-55
2023/11/07 00:17:28;;;;;;;0.40;0.20;;;8.30;99.90;;;;;;5133650;27;20410;-55
2023/11/07 00:19:55;;;;;;;1.30;0.20;;;8.20;99.90;;;;;;5134040;27;20860;-54
2023/11/07 00:22:23;;;;;;;0.60;0.20;;;8.20;99.90;;;;;;5132580;27;20422;-57
2023/11/07 00:24:53;;;;;;;0.30;0.10;;;8.20;99.90;;;;;;5131622;27;20437;-56
2023/11/07 00:27:20;;;;;;;0.50;0.20;;;8.20;99.90;;;;;;5131549;27;20426;-56
2023/11/07 00:29:48;;;;;;;0.40;0.20;;;8.20;99.90;;;;;;5131445;27;20422;-52
2023/11/07 00:32:17;;;;;;;0.50;0.20;;;8.20;99.90;;;;;;5131009;27;20474;-55
2023/11/07 00:34:44;;;;;;;0.40;0.20;;;8.20;99.90;;;;;;5131585;27;20414;-57
2023/11/07 00:37:15;;;;;;;0.50;0.20;;;8.30;99.90;;;;;;5131038;27;20423;-56
2023/11/07 00:39:43;;;;;;;0.50;0.20;;;8.20;99.90;;;;;;5131224;27;20427;-56
2023/11/07 00:42:10;;;;;;;0.60;0.20;;;8.20;99.90;;;;;;5131283;27;20429;-57
2023/11/07 00:44:38;;;;;;;0.52;0.20;;;8.30;99.90;;;;;;5130873;27;20479;-55
2023/11/07 00:47:06;;;;;;;0.40;0.20;;;8.20;99.90;;;;;;5131511;27;20517;-56
2023/11/07 00:49:35;;;;;;;0.85;0.17;;;8.20;99.90;;;;;;5133290;27;21187;-55
2023/11/07 00:52:03;;;;;;;0.50;0.20;;;8.10;96.40;;;;;;5133672;27;20928;-56
2023/11/07 00:54:31;;;;;;;0.40;0.20;;;8.10;99.90;;;;;;5131469;27;20866;-58
2023/11/07 00:56:58;;;;;;;0.40;0.20;;;8.30;99.90;;;;;;5130261;27;20593;-57
2023/11/07 00:59:35;;;;;;;0.40;0.20;;;8.20;99.90;;;;;;5131116;27;20501;-56
2023/11/07 01:02:03;;;;;;;0.50;0.20;;;8.40;99.90;;;;;;5131822;27;20418;-57
2023/11/07 01:04:30;;;;;;;1.60;0.30;;;8.40;99.90;;;;;;5133021;27;20429;-57
2023/11/07 01:06:59;;;;;;;0.50;0.20;;;8.50;99.90;;;;;;5133510;27;20422;-55
2023/11/07 01:09:27;;;;;;;0.50;0.20;;;8.30;99.90;;;;;;5133529;27;20708;-56
2023/11/07 01:11:55;;;;;;;0.80;0.20;;;8.20;99.90;;;;;;5133063;27;20422;-57
2023/11/07 01:14:24;;;;;;;0.57;0.30;;;8.20;99.90;;;;;;5133620;27;20406;-56
2023/11/07 01:16:52;;;;;;;1.30;0.20;;;8.20;99.90;;;;;;5131732;27;20645;-56
2023/11/07 01:19:20;;;;;;;0.50;0.20;;;8.10;99.90;;;;;;5131896;27;20479;-55
2023/11/07 01:21:48;;;;;;;0.40;0.20;;;8.10;99.90;;;;;;5133055;27;20418;-56
2023/11/07 01:24:17;;;;;;;1.00;0.20;;;8.10;99.90;;;;;;5132113;27;20864;-55
2023/11/07 01:26:54;;;;;;;0.40;0.20;;;8.00;99.90;;;;;;5131274;27;20534;-53
2023/11/07 01:29:21;;;;;;;0.47;0.20;;;8.10;99.90;;;;;;5131101;27;20513;-56
2023/11/07 01:31:50;;;;;;;0.60;0.20;;;8.10;99.90;;;;;;5131028;27;20418;-54
2023/11/07 01:34:19;;;;;;;0.30;0.10;;;8.20;99.90;;;;;;5130498;27;20437;-58
2023/11/07 01:36:46;;;;;;;0.80;0.20;;;8.20;99.90;;;;;;5130884;27;20511;-57
2023/11/07 01:39:14;;;;;;;0.60;0.20;;;8.20;99.90;;;;;;5131802;27;20429;-58
2023/11/07 01:41:45;;;;;;;0.60;0.20;;;8.30;99.90;;;;;;5131279;27;20422;-57
2023/11/07 01:44:13;;;;;;;0.40;0.20;;;8.10;98.70;;;;;;5131976;27;20427;-56
2023/11/07 01:46:41;;;;;;;0.60;0.20;;;8.10;99.90;;;;;;5131824;27;20413;-57
2023/11/07 01:49:08;;;;;;;0.60;0.20;;;8.10;99.90;;;;;;5131284;27;20920;-55
2023/11/07 01:51:38;;;;;;;0.50;0.20;;;8.00;99.90;;;;;;5132931;27;20880;-55
2023/11/07 01:54:06;;;;;;;0.88;0.30;;;7.90;99.90;;;;;;5131109;27;20660;-55
2023/11/07 01:56:34;;;;;;;0.50;0.20;;;8.00;99.90;;;;;;5133895;27;20417;-56
2023/11/07 01:59:03;;;;;;;0.40;0.20;;;8.00;99.90;;;;;;5135879;27;20505;-56
2023/11/07 02:01:35;;;;;;;1.20;0.30;;;8.00;99.90;;;;;;5136203;27;20423;-56
2023/11/07 02:04:04;;;;;;;0.60;0.30;;;8.00;99.90;;;;;;5134289;27;20525;-53
2023/11/07 02:06:54;;;;;;;1.30;0.30;;;7.90;99.90;;;;;;5135061;27;20898;-54
2023/11/07 02:09:22;;;;;;;0.50;0.28;;;7.90;99.90;;;;;;5135337;27;20471;-55
2023/11/07 02:11:50;;;;;;;0.50;0.30;;;7.90;99.90;;;;;;5135721;27;20695;-56
2023/11/07 02:14:40;;;;;;;0.40;0.20;;;8.00;99.90;;;;;;5136789;27;20410;-54
2023/11/07 02:17:07;;;;;;;0.40;0.20;;;7.90;99.90;;;;;;5130141;27;20857;-56
2023/11/07 02:19:34;;;;;;;0.40;0.20;;;7.90;99.90;;;;;;5135887;27;20415;-54
2023/11/07 02:22:08;;;;;;;1.50;0.20;;;8.00;99.90;;;;;;5136010;27;20425;-57
2023/11/07 02:24:37;;;;;;;0.57;0.20;;;8.10;99.90;;;;;;5134448;27;20458;-56
2023/11/07 02:27:06;;;;;;;0.50;0.20;;;8.00;99.90;;;;;;5134306;27;20826;-56
2023/11/07 02:29:33;;;;;;;0.40;0.10;;;7.90;92.10;;;;;;5134133;27;20746;-57
2023/11/07 02:32:00;;;;;;;0.60;0.20;;;8.00;99.90;;;;;;5134116;27;20422;-54
2023/11/07 02:34:27;;;;;;;0.50;0.20;;;7.90;68.70;;;;;;5133813;27;20662;-57
2023/11/07 02:36:54;;;;;;;0.40;0.20;;;7.90;90.90;;;;;;5134632;27;20902;-57
2023/11/07 02:39:21;;;;;;;0.57;0.20;;;7.90;90.00;;;;;;5134831;27;20415;-56
2023/11/07 02:41:49;;;;;;;0.40;0.20;;;7.90;99.90;;;;;;5136073;27;20422;-56
2023/11/07 02:44:18;;;;;;;0.50;0.20;;;7.80;99.90;;;;;;5135544;27;20427;-54
2023/11/07 02:46:48;;;;;;;0.40;0.20;;;7.80;99.90;;;;;;5134218;27;20467;-57
2023/11/07 02:49:15;;;;;;;0.40;0.20;;;7.70;99.90;;;;;;5135147;27;20422;-56
2023/11/07 02:51:42;;;;;;;0.57;0.20;;;7.80;99.90;;;;;;5135288;27;20418;-55
2023/11/07 02:54:09;;;;;;;0.50;0.20;;;7.80;99.90;;;;;;5134306;27;21017;-56
2023/11/07 02:56:36;;;;;;;0.40;0.20;;;7.90;99.90;;;;;;5134163;27;20803;-56
2023/11/07 02:59:05;;;;;;;0.47;0.10;;;7.90;99.90;;;;;;5134492;27;20707;-54
2023/11/07 03:01:32;;;;;;;0.80;0.20;;;8.10;99.90;;;;;;5135525;27;20429;-54
2023/11/07 03:03:59;;;;;;;0.40;0.20;;;8.00;99.90;;;;;;5134687;27;20509;-54
2023/11/07 03:06:26;;;;;;;0.30;0.10;;;8.20;99.90;;;;;;5134232;27;20479;-55
2023/11/07 03:08:53;;;;;;;1.13;0.20;;;8.20;99.90;;;;;;5132731;27;20446;-55
2023/11/07 03:11:21;;;;;;;0.45;0.20;;;8.10;99.90;;;;;;5133141;27;20517;-53
2023/11/07 03:13:48;;;;;;;0.90;0.20;;;8.00;99.90;;;;;;5134080;27;20706;-57
2023/11/07 03:16:16;;;;;;;0.40;0.10;;;8.10;50.60;;;;;;5133196;27;20476;-55
2023/11/07 03:18:43;;;;;;;0.40;0.10;;;8.20;99.90;;;;;;5133033;27;20471;-56
2023/11/07 03:21:10;;;;;;;0.98;0.20;;;8.10;99.90;;;;;;5133192;27;20468;-56
2023/11/07 03:23:39;;;;;;;0.50;0.10;;;8.00;99.90;;;;;;5132014;27;20411;-54
2023/11/07 03:26:07;;;;;;;0.40;0.20;;;8.00;99.90;;;;;;5132187;27;20419;-56
2023/11/07 03:28:34;;;;;;;1.50;0.20;;;8.00;99.90;;;;;;5131885;27;20516;-53
2023/11/07 03:31:01;;;;;;;1.20;0.20;;;7.90;99.90;;;;;;5132136;27;20418;-59
2023/11/07 03:33:29;;;;;;;0.70;0.20;;;7.80;99.90;;;;;;5131938;27;20461;-57
2023/11/07 03:35:57;;;;;;;1.00;0.20;;;7.70;99.90;;;;;;5132307;27;20904;-54
2023/11/07 03:38:24;;;;;;;0.50;0.17;;;7.80;52.40;;;;;;5133087;27;20734;-52
2023/11/07 03:40:51;;;;;;;0.40;0.20;;;7.80;60.00;;;;;;5133152;27;20475;-55
2023/11/07 03:43:18;;;;;;;0.40;0.10;;;7.90;99.90;;;;;;5134090;27;20475;-52
2023/11/07 03:45:45;;;;;;;0.35;0.10;;;7.80;99.90;;;;;;5133559;27;20434;-55
2023/11/07 03:48:12;;;;;;;0.90;0.20;;;7.80;99.90;;;;;;5133708;27;20425;-55
2023/11/07 03:50:40;;;;;;;0.40;0.20;;;7.80;99.90;;;;;;5133533;27;20426;-55
2023/11/07 03:53:07;;;;;;;0.50;0.10;;;7.90;99.90;;;;;;5134323;27;20414;-54
2023/11/07 03:55:34;;;;;;;0.30;0.10;;;8.00;99.90;;;;;;5133376;27;20475;-53
2023/11/07 03:58:01;;;;;;;0.30;0.20;;;8.00;99.90;;;;;;5133297;27;20478;-54
2023/11/07 04:00:28;;;;;;;2.30;0.20;;;8.00;99.90;;;;;;5133704;27;20846;-54
2023/11/07 04:02:56;;;;;;;0.50;0.20;;;8.00;99.90;;;;;;5132544;27;20426;-51
2023/11/07 04:05:23;;;;;;;0.60;0.20;;;8.00;99.90;;;;;;5134696;27;20451;-49
2023/11/07 04:07:51;;;;;;;0.40;0.10;;;8.00;99.90;;;;;;5134513;27;20417;-52
2023/11/07 04:10:18;;;;;;;1.60;0.10;;;8.00;99.90;;;;;;5132861;27;20426;-52
2023/11/07 04:12:45;;;;;;;0.40;0.20;;;8.00;99.90;;;;;;5132331;27;20429;-52
2023/11/07 04:15:12;;;;;;;0.40;0.20;;;8.00;99.90;;;;;;5132626;27;20471;-49
2023/11/07 04:17:40;;;;;;;0.40;0.10;;;8.00;99.90;;;;;;5131672;27;20422;-51
2023/11/07 04:20:09;;;;;;;0.32;0.15;;;8.00;99.90;;;;;;5131778;27;20438;-47
2023/11/07 04:22:36;;;;;;;0.47;0.17;;;8.00;99.90;;;;;;5132322;27;20422;-52
2023/11/07 04:25:06;;;;;;;0.40;0.10;;;7.90;99.90;;;;;;5131683;27;20429;-52
2023/11/07 04:27:34;;;;;;;0.50;0.20;;;7.80;99.90;;;;;;5133130;27;20834;-47
2023/11/07 04:30:05;;;;;;;0.40;0.20;;;7.70;99.90;;;;;;5132093;27;20444;-48
2023/11/07 04:32:32;;;;;;;0.50;0.10;;;7.80;99.90;;;;;;5131901;27;20414;-53
2023/11/07 04:34:59;;;;;;;0.30;0.10;;;7.80;99.90;;;;;;5132548;27;20912;-49
2023/11/07 04:37:26;;;;;;;0.50;0.20;;;7.80;99.90;;;;;;5132991;27;20534;-51
2023/11/07 04:39:53;;;;;;;0.40;0.20;;;7.80;99.90;;;;;;5130940;27;20846;-50
2023/11/07 04:42:22;;;;;;;0.50;0.10;;;7.80;99.90;;;;;;5130705;27;20483;-48
2023/11/07 04:44:50;;;;;;;0.30;0.10;;;7.70;99.90;;;;;;5131338;27;20433;-49
2023/11/07 04:47:17;;;;;;;0.40;0.20;;;7.70;99.90;;;;;;5131545;27;20769;-52
2023/11/07 04:49:45;;;;;;;0.30;0.10;;;8.00;99.90;;;;;;5130876;27;20717;-49
2023/11/07 04:52:12;;;;;;;0.60;0.20;;;8.00;99.90;;;;;;5130737;27;20429;-53
2023/11/07 04:54:39;;;;;;;0.40;0.20;;;8.00;99.90;;;;;;5131291;27;20520;-52
2023/11/07 04:57:07;;;;;;;0.30;0.15;;;8.00;99.90;;;;;;5131423;27;20479;-55
2023/11/07 04:59:36;;;;;;;0.40;0.10;;;8.10;99.90;;;;;;5131193;27;20470;-53
2023/11/07 05:02:06;;;;;;;0.40;0.20;;;8.00;99.90;;;;;;5131056;27;20422;-54
2023/11/07 05:04:33;;;;;;;0.40;0.15;;;7.90;99.90;;;;;;5131559;27;20854;-55
2023/11/07 05:07:00;;;;;;;0.30;0.10;;;7.80;99.90;;;;;;5131480;27;20410;-54
2023/11/07 05:09:27;;;;;;;0.40;0.17;;;7.80;99.90;;;;;;5130982;27;20418;-56
2023/11/07 05:11:57;;;;;;;0.50;0.10;;;7.80;99.90;;;;;;5130657;27;20418;-56
2023/11/07 05:14:24;;;;;;;0.50;0.10;;;7.70;99.90;;;;;;5130690;27;20700;-55
2023/11/07 05:16:52;;;;;;;0.30;0.20;;;7.70;99.90;;;;;;5131240;27;20483;-55
2023/11/07 05:19:19;;;;;;;0.60;0.10;;;7.80;99.90;;;;;;5131602;28;20418;-56
2023/11/07 05:21:46;;;;;;;0.40;0.20;;;7.70;99.90;;;;;;5130354;28;20419;-56
2023/11/07 05:24:13;;;;;;;0.40;0.20;;;7.70;99.90;;;;;;5127314;28;20422;-54
2023/11/07 05:26:40;;;;;;;0.30;0.10;;;7.70;99.90;;;;;;5127585;28;20463;-57
2023/11/07 05:29:07;;;;;;;0.90;0.20;;;7.80;99.90;;;;;;5127929;28;20463;-56
2023/11/07 05:31:34;;;;;;;0.50;0.20;;;7.90;99.90;;;;;;5129710;27;20418;-55
2023/11/07 05:34:02;;;;;;;1.10;0.10;;;7.80;99.90;;;;;;5131617;27;20427;-57
2023/11/07 05:36:29;;;;;;;0.40;0.20;;;7.70;99.90;;;;;;5132464;27;20414;-55
2023/11/07 05:38:56;;;;;;;0.50;0.20;;;7.70;99.90;;;;;;5135410;27;20422;-54
2023/11/07 05:41:25;;;;;;;1.00;0.20;;;7.70;99.90;;;;;;5134780;27;20441;-53
2023/11/07 05:43:52;;;;;;;0.80;0.20;;;7.70;99.90;;;;;;5134605;27;20509;-53
2023/11/07 05:46:21;;;;;;;0.40;0.20;;;7.70;99.90;;;;;;5135037;27;20929;-54
2023/11/07 05:48:51;;;;;;;0.88;0.10;;;7.80;99.90;;;;;;5134662;27;20432;-53
2023/11/07 05:51:19;;;;;;;0.50;0.20;;;7.80;99.90;;;;;;5134874;27;20482;-55
2023/11/07 05:53:46;;;;;;;0.40;0.20;;;7.90;99.90;;;;;;5134945;27;20904;-52
2023/11/07 05:56:13;;;;;;;0.40;0.20;;;7.80;99.90;;;;;;5134454;27;20767;-54
2023/11/07 05:58:40;;;;;;;1.40;0.20;;;7.90;99.90;;;;;;5134470;27;20422;-53
2023/11/07 06:01:07;;;;;;;0.43;0.20;;;7.90;99.90;;;;;;5133378;27;20479;-56
2023/11/07 06:03:34;;;;;;;0.70;0.20;;;7.90;99.90;;;;;;5134281;27;20978;-57
2023/11/07 06:06:01;;;;;;;0.47;0.20;;;7.80;99.90;;;;;;5134648;27;20426;-58
2023/11/07 06:08:30;;;;;;;0.60;0.20;;;7.90;99.90;;;;;;5133837;27;20419;-58
2023/11/07 06:10:57;;;;;;;1.20;0.20;;;7.80;99.90;;;;;;5131283;27;20837;-57
2023/11/07 06:13:24;;;;;;;0.40;0.30;;;7.90;99.90;;;;;;5131811;27;20838;-57
2023/11/07 06:15:51;;;;;;;0.60;0.20;;;7.90;99.90;;;;;;5131901;27;20419;-58
2023/11/07 06:18:18;;;;;;;0.60;0.20;;;8.00;99.90;;;;;;5132073;27;20474;-57
2023/11/07 06:20:44;;;;;;;0.40;0.20;;;8.00;99.90;;;;;;5132408;27;20478;-56
2023/11/07 06:23:12;;;;;;;0.40;0.20;;;7.90;99.90;;;;;;5133324;27;20822;-58
2023/11/07 06:25:40;;;;;;;0.40;0.20;;;7.90;99.90;;;;;;5132479;27;20798;-57
2023/11/07 06:28:08;;;;;;;0.50;0.20;;;7.90;99.90;;;;;;5132833;27;20498;-57
2023/11/07 06:30:36;;;;;;;0.60;0.20;;;7.90;99.90;;;;;;5132015;27;20949;-56
2023/11/07 06:33:03;;;;;;;0.40;0.20;;;7.90;99.90;;;;;;5131126;27;20420;-57
2023/11/07 06:35:30;;;;;;;0.45;0.20;;;8.00;99.90;;;;;;5132009;27;20489;-58
2023/11/07 06:37:57;;;;;;;0.50;0.20;;;8.00;99.90;;;;;;5131084;27;20483;-58
2023/11/07 06:40:24;;;;;;;0.70;0.20;;;8.00;99.90;;;;;;5131275;27;20422;-57
2023/11/07 06:42:52;;;;;;;0.60;0.30;;;8.00;99.90;;;;;;5128866;27;20422;-57
2023/11/07 06:45:20;;;;;;;0.60;0.20;;;8.00;99.90;;;;;;5130218;27;20517;-58
2023/11/07 06:47:48;;;;;;;0.47;0.20;;;8.00;99.90;;;;;;5129799;27;20456;-56
2023/11/07 06:50:16;;;;;;;0.50;0.20;;;7.90;99.90;;;;;;5129353;27;20447;-57
2023/11/07 06:52:48;;;;;;;0.40;0.20;;;7.90;99.90;;;;;;5128708;27;20423;-58
2023/11/07 06:55:15;;;;;;;1.40;0.20;;;8.00;99.90;;;;;;5130863;27;20467;-55
2023/11/07 06:57:43;;;;;;;0.40;0.20;;;8.00;99.90;;;;;;5131904;27;20430;-56
2023/11/07 07:00:15;;;;;;;1.27;0.20;;;8.00;99.90;;;;;;5127765;27;20479;-60
2023/11/07 07:02:42;;;;;;;0.40;0.20;;;8.00;99.90;;;;;;5128367;27;20860;-61
2023/11/07 07:05:12;;;;;;;0.50;0.20;;;8.10;99.90;;;;;;5129985;27;20410;-61
2023/11/07 07:07:40;;;;;;;0.57;0.20;;;8.10;99.90;;;;;;5129686;27;20415;-60
2023/11/07 07:10:09;;;;;;;0.30;0.20;;;8.30;99.90;;;;;;5130355;27;20710;-60
2023/11/07 07:12:36;;;;;;;0.40;0.28;;;8.40;99.90;;;;;;5129840;27;20429;-58
2023/11/07 07:15:03;;;;;;;0.40;0.20;;;8.40;99.90;;;;;;5129594;27;20833;-53
2023/11/07 07:17:31;;;;;;;2.00;0.20;;;8.40;99.90;;;;;;5128737;27;20524;-57
2023/11/07 07:19:58;;;;;;;0.50;0.20;;;8.40;99.90;;;;;;5128905;27;20467;-57
2023/11/07 07:22:28;;;;;;;0.50;0.30;;;8.30;99.90;;;;;;5128644;27;20479;-59
2023/11/07 07:24:55;;;;;;;0.40;0.20;;;8.50;99.90;;;;;;5129197;27;20516;-59
2023/11/07 07:27:24;;;;;;;0.40;0.20;;;8.50;99.90;;;;;;5129470;27;20572;-58
2023/11/07 07:29:51;;;;;;;0.50;0.20;;;8.40;99.90;;;;;;5128684;27;20419;-55
2023/11/07 07:32:20;;;;;;;0.60;0.20;;;8.40;99.90;;;;;;5128193;27;20422;-56
2023/11/07 07:34:49;;;;;;;0.73;0.20;;;8.40;99.90;;;;;;5127460;27;20446;-57
2023/11/07 07:37:20;;;;;;;0.60;0.20;;;8.30;99.90;;;;;;5127774;27;20415;-57
2023/11/07 07:39:47;;;;;;;0.60;0.20;;;8.40;99.90;;;;;;5126997;27;20422;-57
2023/11/07 07:42:17;;;;;;;2.10;0.20;;;8.40;99.90;;;;;;5127095;27;20487;-58
2023/11/07 07:44:44;;;;;;;0.57;0.30;;;8.70;1.00;;;;;;5128786;27;20426;-59
2023/11/07 07:47:11;;;;;;;0.50;0.30;;;8.70;1.00;;;;;;5128695;27;20422;-58
2023/11/07 07:49:40;;;;;;;1.00;0.20;;;8.80;1.00;;;;;;5129099;27;20792;-59
2023/11/07 07:52:09;;;;;;;0.50;0.20;;;8.80;1.00;;;;;;5126854;27;20467;-58
2023/11/07 07:54:37;;;;;;;0.40;0.20;;;8.90;1.00;;;;;;5126122;27;20447;-58
2023/11/07 07:57:08;;;;;;;0.40;0.20;;;8.80;99.90;;;;;;5126164;27;20471;-59
2023/11/07 07:59:40;;;;;;;0.40;0.20;;;8.90;1.00;;;;;;5122285;27;20418;-59
2023/11/07 08:02:08;;;;;;;0.40;0.20;;;8.90;1.00;;;;;;5118409;27;20430;-59
2023/11/07 08:04:36;;;;;;;0.52;0.20;;;8.90;1.00;;;;;;5117780;27;20432;-59
2023/11/07 08:07:04;;;;;;;1.30;0.20;;;8.90;99.90;;;;;;5102498;27;20454;-58
2023/11/07 08:09:33;;;;;;;0.82;0.20;;;9.00;99.90;;;;;;5124181;27;20652;-59
2023/11/07 08:12:00;;;;;;;0.60;0.20;;;9.30;1.00;;;;;;5125101;27;20423;-58
2023/11/07 08:14:29;;;;;;;0.60;0.20;;;9.40;1.00;;;;;;5108783;27;20419;-59
2023/11/07 08:16:55;;;;;;;0.60;0.20;;;9.50;1.00;;;;;;5122072;27;20517;-59
2023/11/07 08:19:24;;;;;;;0.40;0.20;;;9.60;99.90;;;;;;5122325;27;20418;-59
2023/11/07 08:21:51;;;;;;;0.40;0.20;;;9.50;99.90;;;;;;5121543;27;20505;-59
2023/11/07 08:24:18;;;;;;;0.70;0.20;;;9.40;99.90;;;;;;5120330;27;20501;-55
2023/11/07 08:26:48;;;;;;;0.60;0.20;;;9.40;1.00;;;;;;5121070;27;20534;-58
2023/11/07 08:29:15;;;;;;;0.90;0.30;;;9.40;1.00;;;;;;5121699;27;20426;-58
2023/11/07 08:31:42;;;;;;;0.50;0.20;;;9.40;1.00;;;;;;5121675;27;20495;-58
2023/11/07 08:34:10;;;;;;;0.80;0.28;;;9.40;1.00;;;;;;5123320;27;20431;-58
2023/11/07 08:36:38;;;;;;;0.90;0.25;;;9.50;1.00;;;;;;5122089;27;20802;-58
2023/11/07 08:39:12;;;;;;;0.57;0.20;;;9.60;1.00;;;;;;5120884;27;20868;-57
2023/11/07 08:41:40;;;;;;;0.65;0.20;;;9.70;99.90;;;;;;5123730;27;20426;-58
2023/11/07 08:44:11;;;;;;;0.40;0.20;;;9.70;99.90;;;;;;5123974;27;20438;-59
2023/11/07 08:46:38;;;;;;;0.40;0.20;;;9.80;99.90;;;;;;5124258;27;20430;-63
2023/11/07 08:49:05;;;;;;;0.70;0.20;;;10.00;1.00;;;;;;5122682;27;20434;-61
2023/11/07 08:51:32;;;;;;;0.60;0.20;;;10.00;99.90;;;;;;5117297;27;20453;-61
2023/11/07 08:53:59;;;;;;;0.40;0.20;;;10.00;99.90;;;;;;5123834;27;20491;-61
2023/11/07 08:56:26;;;;;;;0.50;0.20;;;10.10;99.90;;;;;;5124388;27;20845;-62
2023/11/07 08:58:55;;;;;;;0.50;0.20;;;10.20;1.00;;;;;;5124370;27;20857;-62
2023/11/07 09:01:23;;;;;;;0.80;0.20;;;10.20;1.00;;;;;;5125103;28;20850;-62
2023/11/07 09:03:51;;;;;;;0.63;0.20;;;10.30;99.90;;;;;;5122826;27;20757;-60
2023/11/07 09:06:18;;;;;;;1.20;0.20;;;10.30;99.90;;;;;;5123863;27;20426;-60
2023/11/07 09:08:46;;;;;;;1.15;0.20;;;10.30;1.00;;;;;;5121050;27;20648;-62
2023/11/07 09:11:14;;;;;;;0.57;0.20;;;10.30;1.00;;;;;;5124394;27;20518;-63
2023/11/07 09:13:41;;;;;;;0.40;0.20;;;10.20;1.00;;;;;;5123838;27;20510;-63
2023/11/07 09:16:09;;;;;;;0.40;0.20;;;10.30;99.90;;;;;;5127405;27;20431;-63
2023/11/07 09:18:38;;;;;;;0.40;0.20;;;10.20;99.90;;;;;;5125213;27;20841;-61
2023/11/07 09:21:05;;;;;;;0.40;0.20;;;10.20;99.90;;;;;;5128574;27;20681;-60
2023/11/07 09:23:33;;;;;;;0.50;0.20;;;10.20;99.90;;;;;;5130406;27;20458;-62
2023/11/07 09:25:59;;;;;;;0.63;0.20;;;10.40;99.90;;;;;;5127541;27;20654;-64
2023/11/07 09:28:26;;;;;;;0.80;0.20;;;10.60;99.90;;;;;;5127892;27;21036;-62
2023/11/07 09:30:53;;;;;;;0.40;0.20;;;10.70;99.90;;;;;;5126014;27;20529;-64
2023/11/07 09:33:20;;;;;;;0.50;0.20;;;10.80;99.90;;;;;;5129717;27;20414;-63
2023/11/07 09:35:49;;;;;;;1.30;0.20;;;10.90;99.90;;;;;;5123189;27;20496;-64
2023/11/07 09:38:16;;;;;;;0.40;0.20;;;10.90;99.90;;;;;;5125807;27;20740;-64
2023/11/07 09:40:44;;;;;;;0.40;0.20;;;11.00;99.90;;;;;;5129079;27;20433;-64
2023/11/07 09:43:12;;;;;;;0.30;0.20;;;11.00;99.90;;;;;;5129037;27;20845;-64
2023/11/07 09:45:41;;;;;;;0.40;0.20;;;11.10;99.90;;;;;;5130531;27;20422;-64
2023/11/07 09:48:09;;;;;;;0.45;0.20;;;11.20;99.90;;;;;;5127739;27;21063;-63
2023/11/07 09:50:40;;;;;;;0.70;0.30;;;11.30;99.90;;;;;;5110701;27;20520;-62
2023/11/07 09:53:14;;;;;;;0.60;0.20;;;11.40;99.90;;;;;;5121550;27;20422;-62
2023/11/07 09:55:41;;;;;;;0.55;0.20;;;11.60;99.90;;;;;;5128170;27;20434;-62
2023/11/07 09:58:10;;;;;;;0.43;0.20;;;12.00;99.90;;;;;;5125833;27;20437;-62
2023/11/07 10:00:38;;;;;;;0.40;0.20;;;12.00;99.90;;;;;;5126359;27;20438;-62
2023/11/07 10:03:06;;;;;;;0.50;0.20;;;12.10;99.90;;;;;;5127867;27;20413;-62
2023/11/07 10:05:37;;;;;;;1.00;0.20;;;12.00;99.90;;;;;;5127699;27;20479;-54
2023/11/07 10:08:04;;;;;;;0.40;0.10;;;11.90;99.90;;;;;;5129163;27;20422;-58
2023/11/07 10:10:34;;;;;;;0.43;0.20;;;11.90;99.90;;;;;;5129106;27;20459;-57
2023/11/07 10:13:08;;;;;;;0.40;0.20;;;11.90;99.90;;;;;;5127837;27;20729;-56
2023/11/07 10:15:36;;;;;;;0.50;0.15;;;12.00;99.90;;;;;;5129941;27;20509;-56
2023/11/07 10:18:08;;;;;;;0.80;0.10;;;11.90;99.90;;;;;;5122860;27;20658;-57
2023/11/07 10:20:36;;;;;;;0.40;0.10;;;12.00;99.90;;;;;;5129429;27;20525;-58
2023/11/07 10:23:04;;;;;;;0.40;0.10;;;12.00;99.90;;;;;;5129423;27;20814;-58
2023/11/07 10:25:34;;;;;;;0.40;0.13;;;12.00;99.90;;;;;;5128592;27;20929;-60
2023/11/07 10:28:03;;;;;;;0.30;0.10;;;12.20;99.90;;;;;;5127439;27;20694;-56
2023/11/07 10:30:39;;;;;;;0.30;0.10;;;12.30;99.90;;;;;;5125097;27;20437;-58
2023/11/07 10:33:07;;;;;;;0.40;0.10;;;12.20;99.90;;;;;;5126707;27;20834;-57
2023/11/07 10:35:51;;;;;;;0.82;0.20;;;12.30;99.90;;;;;;5126424;27;20699;-55
2023/11/07 10:38:19;;;;;;;0.40;0.10;;;12.50;99.90;;;;;;5121243;27;20849;-56
2023/11/07 10:40:49;;;;;;;0.70;0.10;;;12.70;99.90;;;;;;5127114;27;20742;-57
2023/11/07 10:43:31;;;;;;;0.40;0.20;;;12.70;99.90;;;;;;5123462;27;20518;-57
2023/11/07 10:46:02;;;;;;;0.30;0.10;;;12.80;99.90;;;;;;5122644;27;20525;-58
2023/11/07 10:48:32;;;;;;;0.30;0.10;;;12.60;99.90;;;;;;5126414;27;20430;-58
2023/11/07 10:51:03;;;;;;;0.40;0.10;;;12.70;99.90;;;;;;5126245;27;20430;-57
2023/11/07 10:53:31;;;;;;;0.35;0.10;;;12.70;99.90;;;;;;5127804;27;20821;-57
2023/11/07 10:56:00;;;;;;;0.30;0.10;;;12.50;99.90;;;;;;5125624;27;20434;-57
2023/11/07 10:58:31;;;;;;;0.30;0.10;;;12.40;99.90;;;;;;5127443;27;20491;-58
2023/11/07 11:01:03;;;;;;;0.30;0.10;;;12.40;99.90;;;;;;5126640;27;20478;-58
2023/11/07 11:03:30;;;;;;;0.30;0.10;;;12.30;99.90;;;;;;5114013;27;20434;-57
2023/11/07 11:06:01;;;;;;;0.30;0.10;;;12.30;99.90;;;;;;5127204;27;20509;-58
2023/11/07 11:08:29;;;;;;;0.30;0.10;;;12.20;99.90;;;;;;5125338;27;20454;-58
2023/11/07 11:11:01;;;;;;;0.40;0.10;;;12.10;99.90;;;;;;5122295;27;20683;-57
2023/11/07 11:13:28;;;;;;;0.40;0.10;;;12.00;99.90;;;;;;5124927;27;20741;-59
2023/11/07 11:15:57;;;;;;;0.40;0.10;;;11.80;99.90;;;;;;5119856;27;20433;-56
2023/11/07 11:18:28;;;;;;;0.40;0.10;;;11.50;99.90;;;;;;5101574;28;20416;-58
2023/11/07 11:21:05;;;;;;;1.30;0.17;;;11.60;99.90;;;;;;5113637;27;20515;-56
2023/11/07 11:23:40;;;;;;;0.50;0.20;;;11.30;1.00;;;;;;5125914;27;20872;-58
2023/11/07 11:26:21;;;;;;;0.40;0.15;;;11.30;1.00;;;;;;5126356;27;20964;-58
2023/11/07 11:28:48;;;;;;;0.30;0.10;;;11.40;99.90;;;;;;5126144;27;20619;-58
2023/11/07 11:31:18;;;;;;;0.35;0.10;;;11.40;99.90;;;;;;5124866;27;20453;-57
2023/11/07 11:33:46;;;;;;;0.50;0.20;;;11.30;99.90;;;;;;5121844;27;20434;-58
2023/11/07 11:36:37;;;;;;;0.40;0.10;;;11.50;1.00;;;;;;5124953;27;20425;-58
2023/11/07 11:39:37;;;;;;;1.40;0.20;;;11.40;1.00;;;;;;5122103;27;20583;-58
2023/11/07 11:42:09;;;;;;;0.30;0.20;;;11.20;1.00;;;;;;5123169;27;20782;-58
2023/11/07 11:44:37;;;;;;;0.30;0.10;;;11.20;1.00;;;;;;5126501;27;20478;-57
2023/11/07 11:47:04;;;;;;;0.30;0.10;;;11.00;1.00;;;;;;5124929;27;20839;-57
2023/11/07 11:49:32;;;;;;;0.30;0.10;;;10.90;1.00;;;;;;5124692;27;20525;-57
2023/11/07 11:51:59;;;;;;;0.40;0.10;;;10.90;1.00;;;;;;5122055;27;21205;-57
2023/11/07 11:54:54;;;;;;;0.30;0.10;;;11.00;1.00;;;;;;5126546;27;20961;-57
2023/11/07 11:57:23;;;;;;;0.30;0.10;;;11.00;1.00;;;;;;5123428;27;20552;-58
2023/11/07 11:59:54;;;;;;;0.30;0.10;;;11.00;1.00;;;;;;5124812;27;20414;-58
2023/11/07 12:02:40;;;;;;;1.67;0.60;;;11.00;1.00;;;;;;5107233;27;20436;-57
2023/11/07 12:05:16;;;;;;;0.40;0.20;;;11.10;1.00;;;;;;5117309;27;20738;-58
2023/11/07 12:07:44;;;;;;;0.40;0.20;;;11.20;1.00;;;;;;5127130;27;20850;-57
2023/11/07 12:10:13;;;;;;;0.40;0.20;;;11.30;1.00;;;;;;5124946;27;20430;-56
2023/11/07 12:12:43;;;;;;;0.85;0.20;;;11.20;1.00;;;;;;5123505;27;20438;-56
2023/11/07 12:15:12;;;;;;;0.60;0.20;;;11.30;1.00;;;;;;5123738;27;20436;-58
2023/11/07 12:17:47;;;;;;;0.45;0.20;;;11.40;1.00;;;;;;5124309;27;20848;-59
2023/11/07 12:20:16;;;;;;;0.40;0.20;;;11.70;1.00;;;;;;5124919;27;20418;-57
2023/11/07 12:22:46;;;;;;;0.40;0.20;;;11.90;1.00;;;;;;5123873;27;20487;-59
2023/11/07 12:25:16;;;;;;;0.30;0.15;;;12.00;1.00;;;;;;5123183;27;20506;-58
2023/11/07 12:28:01;;;;;;;0.40;0.10;;;12.20;1.00;;;;;;5122063;27;20518;-58
2023/11/07 12:30:29;;;;;;;0.30;0.10;;;12.30;99.90;;;;;;5123070;27;20884;-56
2023/11/07 12:33:00;;;;;;;0.40;0.10;;;12.10;99.90;;;;;;5125735;27;20776;-58
2023/11/07 12:35:29;;;;;;;0.40;0.10;;;12.10;56.50;;;;;;5124948;27;20418;-58
2023/11/07 12:37:58;;;;;;;0.40;0.20;;;12.10;99.90;;;;;;5124319;27;20906;-53
2023/11/07 12:40:25;;;;;;;0.30;0.10;;;12.30;1.00;;;;;;5121265;27;20528;-55
2023/11/07 12:42:55;;;;;;;0.50;0.20;;;12.30;1.00;;;;;;5124309;27;20426;-56
2023/11/07 12:45:25;;;;;;;0.80;0.10;;;12.40;1.00;;;;;;5122609;27;20687;-57
2023/11/07 12:47:59;;;;;;;0.60;0.30;;;12.40;1.00;;;;;;5121992;27;20486;-57
2023/11/07 12:50:32;;;;;;;0.40;0.20;;;12.50;1.00;;;;;;5119362;27;20498;-57
2023/11/07 12:53:00;;;;;;;0.40;0.10;;;12.50;99.90;;;;;;5123614;27;20867;-57
2023/11/07 12:55:27;;;;;;;0.40;0.17;;;12.40;99.90;;;;;;5123651;27;20431;-58
2023/11/07 12:57:56;;;;;;;0.40;0.20;;;12.40;99.90;;;;;;5124310;27;20406;-55
2023/11/07 13:00:25;;;;;;;0.35;0.10;;;12.50;99.90;;;;;;5124464;27;20430;-55
2023/11/07 13:02:56;;;;;;;0.40;0.20;;;12.50;75.00;;;;;;5125680;27;20534;-57